Santa Fe, NM

6:17 AM MDT on October 01, 2014 (GMT -0600)
Santa Fe Municipal | Change Station
CLOSE
Current Station
Airport
Location: Santa Fe,
Elevation: 6345 ft
Nearby Weather Stations

Elev 6345 ft 35.62 °N, 106.09 °W | Updated 24 minutes ago

Clear
Clear
42 °F
Feels Like 36 °F
N
10
Wind Variable Wind from North

Today
High -- | Low -- °F
--% Chance of Precip.
Yesterday
High -- | Low -- °F
Precip. -- in
6:59 AM 6:48 PM
Waxing Crescent, 47% visible
Pressure 29.79 in
Visibility 10.0 miles
Clouds Clear
Windchill 36 °F
Dew Point 31 °F
Humidity 65%
Rainfall 0.00 in
Snow Depth 0 in , 20 in , 2 in
UV 0 out of 12
Pollen 5.90 out of 12
Air Quality Not available.
Flu Activity Not available.
METAR KSAF 011153Z 01009KT 10SM CLR 06/M01 A2999 RMK AO2 SLP086 T00561006 10111 20044 50001 $

More Conditions Fewer Conditions

Pressure 29.79 in
Visibility 10.0 miles
Clouds Clear
Windchill 36 °F
Dew Point 31 °F
Humidity 65%
Rainfall 0.00 in
Snow Depth 0 in , 20 in , 2 in
UV 0 out of 12
Pollen 5.90 out of 12
Air Quality Not available.
Flu Activity Not available.
METAR KSAF 011153Z 01009KT 10SM CLR 06/M01 A2999 RMK AO2 SLP086 T00561006 10111 20044 50001 $

More Conditions Fewer Conditions

10-Day Weather Forecast

Almanac

Astronomy

Oct. 01, 2014 Rise Set
Actual Time 6:59 AM MDT 6:48 PM MDT
Civil Twilight 6:33 AM MDT 7:13 PM MDT
Nautical Twilight 6:04 AM MDT 7:42 PM MDT
Astronomical Twilight 5:34 AM MDT 8:12 PM MDT
Moon 1:54 PM MDT No Moon Set
Length of Visible Light 12h 39m
Length of Day
11h 48m
Tomorrow will be 2m 14s shorter.
Waxing Crescent, 47% of the Moon is Illuminated
Today
Waxing Crescent
Oct 1
First Quarter
Oct 8
Full
Oct 15
Last Quarter
Oct 23
New

Today's Extremes

State Highs State Lows

Community

WunderPhotos

Upload Photos

1,757,914 photos uploaded!

Nearby

Snow Depth

Station Depth Elevation
Frisco Divide 0 in 8000 ft
Silver Creek Divide 20 in 9000 ft
Santa Fe 2 in 11445 ft
Quemazon 2 in 9500 ft
Tolby 1 in 10180 ft

Earthquake Activity

City Distance Mag. Time & Date
Trinidad, Colorado 118 miles 2.9 3:55 AM MDT
2014-09-30
Minimum magnitude displayed is 2.5.

Coastal Water Temperatures

Place Temperature
No Stations Reporting

Nearby Weather Stations